LFBC 301030Z AUTO 05005KT 360V110 CAVOK 27/14 Q1013

ElémentsDécodage
LFBC Station météo située sur l'aérodrome de CAZAUX
301030Z émis le 30 du mois à 10h30 UTC
AUTO Bulletin édité par un automate
05005KT vent du 050°, 05 noeuds
360V110 vent de direction variable entre 360° et 110°
CAVOK Ceiling And Visibility OK
- Visibilité de 10 Km ou plus
- Pas de nuage au-dessous de 1500m ou au-dessous de l'altitude minimale du secteur la plus élevée (si>1500m) et absence de CB
- pas de temps présent significatif
27/14 température 27°C, point de rosée 14°C
 soit une humidité relative de 45%
Q1013 la pression au niveau de la mer (QNH) est de 1013 hPa